sensor_id;sensor_type;location;lat;lon;timestamp;P1;durP1;ratioP1;P2;durP2;ratioP2
54555;SDS011;57291;37.520;15.106;2023-08-12T00:00:31;7.50;;;3.33;;
54555;SDS011;57291;37.520;15.106;2023-08-12T00:02:58;7.07;;;2.83;;
54555;SDS011;57291;37.520;15.106;2023-08-12T00:05:26;7.85;;;2.95;;
54555;SDS011;57291;37.520;15.106;2023-08-12T00:07:53;5.75;;;2.85;;
54555;SDS011;57291;37.520;15.106;2023-08-12T00:10:20;6.57;;;2.95;;
54555;SDS011;57291;37.520;15.106;2023-08-12T00:12:47;5.85;;;2.80;;
54555;SDS011;57291;37.520;15.106;2023-08-12T00:15:14;7.05;;;3.05;;
54555;SDS011;57291;37.520;15.106;2023-08-12T00:17:42;5.57;;;2.65;;
54555;SDS011;57291;37.520;15.106;2023-08-12T00:20:09;5.55;;;2.70;;
54555;SDS011;57291;37.520;15.106;2023-08-12T00:22:38;7.53;;;3.10;;
54555;SDS011;57291;37.520;15.106;2023-08-12T00:25:06;4.53;;;2.92;;
54555;SDS011;57291;37.520;15.106;2023-08-12T00:27:33;9.13;;;3.45;;
54555;SDS011;57291;37.520;15.106;2023-08-12T00:30:01;5.35;;;2.90;;
54555;SDS011;57291;37.520;15.106;2023-08-12T00:32:28;7.28;;;2.88;;
54555;SDS011;57291;37.520;15.106;2023-08-12T00:34:56;5.70;;;3.55;;
54555;SDS011;57291;37.520;15.106;2023-08-12T00:37:23;7.90;;;3.58;;
54555;SDS011;57291;37.520;15.106;2023-08-12T00:39:51;6.55;;;3.33;;
54555;SDS011;57291;37.520;15.106;2023-08-12T00:42:18;8.05;;;3.80;;
54555;SDS011;57291;37.520;15.106;2023-08-12T00:44:45;8.38;;;3.88;;
54555;SDS011;57291;37.520;15.106;2023-08-12T00:47:13;8.77;;;3.90;;
54555;SDS011;57291;37.520;15.106;2023-08-12T00:49:40;11.82;;;4.50;;
54555;SDS011;57291;37.520;15.106;2023-08-12T00:52:12;10.15;;;4.20;;
54555;SDS011;57291;37.520;15.106;2023-08-12T00:54:40;8.90;;;3.72;;
54555;SDS011;57291;37.520;15.106;2023-08-12T00:57:07;7.75;;;3.63;;
54555;SDS011;57291;37.520;15.106;2023-08-12T00:59:35;9.63;;;3.72;;
54555;SDS011;57291;37.520;15.106;2023-08-12T01:02:07;9.07;;;3.58;;
54555;SDS011;57291;37.520;15.106;2023-08-12T01:04:35;6.45;;;3.40;;
54555;SDS011;57291;37.520;15.106;2023-08-12T01:07:02;10.20;;;3.67;;
54555;SDS011;57291;37.520;15.106;2023-08-12T01:09:30;8.85;;;3.58;;
54555;SDS011;57291;37.520;15.106;2023-08-12T01:12:02;6.43;;;3.85;;
54555;SDS011;57291;37.520;15.106;2023-08-12T01:14:46;6.18;;;3.60;;
54555;SDS011;57291;37.520;15.106;2023-08-12T01:17:15;6.73;;;3.30;;
54555;SDS011;57291;37.520;15.106;2023-08-12T01:19:43;7.55;;;3.63;;
54555;SDS011;57291;37.520;15.106;2023-08-12T01:22:13;8.25;;;3.78;;
54555;SDS011;57291;37.520;15.106;2023-08-12T01:24:43;6.70;;;3.60;;
54555;SDS011;57291;37.520;15.106;2023-08-12T01:27:12;5.85;;;3.22;;
54555;SDS011;57291;37.520;15.106;2023-08-12T01:29:41;5.03;;;3.60;;
54555;SDS011;57291;37.520;15.106;2023-08-12T01:32:14;5.57;;;3.35;;
54555;SDS011;57291;37.520;15.106;2023-08-12T01:37:48;5.38;;;3.05;;
54555;SDS011;57291;37.520;15.106;2023-08-12T01:40:17;6.57;;;3.40;;
54555;SDS011;57291;37.520;15.106;2023-08-12T01:42:46;8.88;;;3.13;;
54555;SDS011;57291;37.520;15.106;2023-08-12T01:45:14;6.00;;;3.30;;
54555;SDS011;57291;37.520;15.106;2023-08-12T01:47:44;5.03;;;3.13;;
54555;SDS011;57291;37.520;15.106;2023-08-12T01:50:12;8.23;;;3.20;;
54555;SDS011;57291;37.520;15.106;2023-08-12T01:52:39;5.93;;;3.90;;
54555;SDS011;57291;37.520;15.106;2023-08-12T01:55:07;9.00;;;3.03;;
54555;SDS011;57291;37.520;15.106;2023-08-12T01:57:34;8.48;;;3.17;;
54555;SDS011;57291;37.520;15.106;2023-08-12T02:00:03;9.18;;;3.13;;
54555;SDS011;57291;37.520;15.106;2023-08-12T02:02:41;5.25;;;3.15;;
54555;SDS011;57291;37.520;15.106;2023-08-12T02:05:13;4.60;;;2.70;;
54555;SDS011;57291;37.520;15.106;2023-08-12T02:07:41;6.25;;;3.28;;
54555;SDS011;57291;37.520;15.106;2023-08-12T02:10:08;5.25;;;2.92;;
54555;SDS011;57291;37.520;15.106;2023-08-12T02:12:36;9.77;;;3.20;;
54555;SDS011;57291;37.520;15.106;2023-08-12T02:15:03;4.32;;;2.75;;
54555;SDS011;57291;37.520;15.106;2023-08-12T02:17:31;6.40;;;2.88;;
54555;SDS011;57291;37.520;15.106;2023-08-12T02:19:58;7.10;;;2.63;;
54555;SDS011;57291;37.520;15.106;2023-08-12T02:22:25;5.47;;;2.95;;
54555;SDS011;57291;37.520;15.106;2023-08-12T02:24:52;6.03;;;2.88;;
54555;SDS011;57291;37.520;15.106;2023-08-12T02:27:20;4.43;;;2.85;;
54555;SDS011;57291;37.520;15.106;2023-08-12T02:29:47;6.43;;;2.50;;
54555;SDS011;57291;37.520;15.106;2023-08-12T02:32:14;8.18;;;2.70;;
54555;SDS011;57291;37.520;15.106;2023-08-12T02:34:41;5.05;;;3.00;;
54555;SDS011;57291;37.520;15.106;2023-08-12T02:37:09;6.55;;;2.90;;
54555;SDS011;57291;37.520;15.106;2023-08-12T02:39:37;5.75;;;2.72;;
54555;SDS011;57291;37.520;15.106;2023-08-12T02:42:04;6.68;;;2.95;;
54555;SDS011;57291;37.520;15.106;2023-08-12T02:44:31;5.53;;;2.40;;
54555;SDS011;57291;37.520;15.106;2023-08-12T02:46:59;5.97;;;2.85;;
54555;SDS011;57291;37.520;15.106;2023-08-12T02:49:26;3.65;;;2.20;;
54555;SDS011;57291;37.520;15.106;2023-08-12T02:51:54;4.57;;;2.35;;
54555;SDS011;57291;37.520;15.106;2023-08-12T02:54:21;5.13;;;2.60;;
54555;SDS011;57291;37.520;15.106;2023-08-12T02:56:49;4.43;;;2.67;;
54555;SDS011;57291;37.520;15.106;2023-08-12T02:59:17;5.75;;;2.63;;
54555;SDS011;57291;37.520;15.106;2023-08-12T03:01:44;5.30;;;2.85;;
54555;SDS011;57291;37.520;15.106;2023-08-12T03:04:11;5.65;;;2.55;;
54555;SDS011;57291;37.520;15.106;2023-08-12T03:06:38;4.57;;;2.58;;
54555;SDS011;57291;37.520;15.106;2023-08-12T03:09:05;5.05;;;2.45;;
54555;SDS011;57291;37.520;15.106;2023-08-12T03:11:33;6.35;;;2.50;;
54555;SDS011;57291;37.520;15.106;2023-08-12T03:14:03;5.47;;;2.60;;
54555;SDS011;57291;37.520;15.106;2023-08-12T03:16:30;7.28;;;2.70;;
54555;SDS011;57291;37.520;15.106;2023-08-12T03:18:57;5.00;;;2.35;;
54555;SDS011;57291;37.520;15.106;2023-08-12T03:21:24;5.28;;;2.72;;
54555;SDS011;57291;37.520;15.106;2023-08-12T03:23:51;5.25;;;2.50;;
54555;SDS011;57291;37.520;15.106;2023-08-12T03:26:19;6.47;;;2.80;;
54555;SDS011;57291;37.520;15.106;2023-08-12T03:28:46;5.43;;;2.72;;
54555;SDS011;57291;37.520;15.106;2023-08-12T03:31:17;9.18;;;3.08;;
54555;SDS011;57291;37.520;15.106;2023-08-12T03:33:44;5.07;;;2.38;;
54555;SDS011;57291;37.520;15.106;2023-08-12T03:36:13;5.38;;;2.80;;
54555;SDS011;57291;37.520;15.106;2023-08-12T03:38:40;3.90;;;2.50;;
54555;SDS011;57291;37.520;15.106;2023-08-12T03:43:41;6.38;;;4.95;;
54555;SDS011;57291;37.520;15.106;2023-08-12T03:46:09;6.82;;;4.57;;
54555;SDS011;57291;37.520;15.106;2023-08-12T03:48:37;4.68;;;3.47;;
54555;SDS011;57291;37.520;15.106;2023-08-12T03:51:04;5.60;;;3.00;;
54555;SDS011;57291;37.520;15.106;2023-08-12T03:53:31;7.68;;;3.08;;
54555;SDS011;57291;37.520;15.106;2023-08-12T03:55:58;5.43;;;3.10;;
54555;SDS011;57291;37.520;15.106;2023-08-12T03:58:26;7.50;;;2.83;;
54555;SDS011;57291;37.520;15.106;2023-08-12T04:00:54;5.78;;;3.08;;
54555;SDS011;57291;37.520;15.106;2023-08-12T04:03:21;6.13;;;2.90;;
54555;SDS011;57291;37.520;15.106;2023-08-12T04:05:52;6.05;;;3.30;;
54555;SDS011;57291;37.520;15.106;2023-08-12T04:08:23;5.93;;;2.85;;
54555;SDS011;57291;37.520;15.106;2023-08-12T04:10:51;6.65;;;2.95;;
54555;SDS011;57291;37.520;15.106;2023-08-12T04:13:19;5.25;;;3.47;;
54555;SDS011;57291;37.520;15.106;2023-08-12T04:15:49;8.98;;;4.07;;
54555;SDS011;57291;37.520;15.106;2023-08-12T04:18:20;6.97;;;4.00;;
54555;SDS011;57291;37.520;15.106;2023-08-12T04:20:49;8.23;;;4.30;;
54555;SDS011;57291;37.520;15.106;2023-08-12T04:23:17;7.65;;;4.43;;
54555;SDS011;57291;37.520;15.106;2023-08-12T04:25:48;7.43;;;3.88;;
54555;SDS011;57291;37.520;15.106;2023-08-12T04:28:17;8.65;;;5.07;;
54555;SDS011;57291;37.520;15.106;2023-08-12T04:30:47;10.27;;;5.00;;
54555;SDS011;57291;37.520;15.106;2023-08-12T04:33:19;9.32;;;5.15;;
54555;SDS011;57291;37.520;15.106;2023-08-12T04:35:49;8.02;;;4.85;;
54555;SDS011;57291;37.520;15.106;2023-08-12T04:38:17;17.20;;;9.05;;
54555;SDS011;57291;37.520;15.106;2023-08-12T04:40:47;15.25;;;8.60;;
54555;SDS011;57291;37.520;15.106;2023-08-12T04:43:15;15.02;;;8.88;;
54555;SDS011;57291;37.520;15.106;2023-08-12T04:45:46;8.77;;;4.20;;
54555;SDS011;57291;37.520;15.106;2023-08-12T04:48:17;9.05;;;4.50;;
54555;SDS011;57291;37.520;15.106;2023-08-12T04:50:44;7.60;;;4.22;;
54555;SDS011;57291;37.520;15.106;2023-08-12T04:53:11;5.65;;;3.70;;
54555;SDS011;57291;37.520;15.106;2023-08-12T04:55:39;8.05;;;4.15;;
54555;SDS011;57291;37.520;15.106;2023-08-12T04:58:06;7.20;;;3.60;;
54555;SDS011;57291;37.520;15.106;2023-08-12T05:00:33;8.13;;;3.85;;
54555;SDS011;57291;37.520;15.106;2023-08-12T05:03:00;7.78;;;4.38;;
54555;SDS011;57291;37.520;15.106;2023-08-12T05:05:28;8.57;;;4.10;;
54555;SDS011;57291;37.520;15.106;2023-08-12T05:07:55;5.55;;;3.58;;
54555;SDS011;57291;37.520;15.106;2023-08-12T05:10:22;9.40;;;3.95;;
54555;SDS011;57291;37.520;15.106;2023-08-12T05:12:50;7.22;;;3.15;;
54555;SDS011;57291;37.520;15.106;2023-08-12T05:15:19;6.55;;;3.38;;
54555;SDS011;57291;37.520;15.106;2023-08-12T05:17:47;7.68;;;3.38;;
54555;SDS011;57291;37.520;15.106;2023-08-12T05:20:18;6.72;;;4.13;;
54555;SDS011;57291;37.520;15.106;2023-08-12T05:22:46;6.45;;;2.97;;
54555;SDS011;57291;37.520;15.106;2023-08-12T05:25:13;4.70;;;2.80;;
54555;SDS011;57291;37.520;15.106;2023-08-12T05:27:40;8.45;;;2.65;;
54555;SDS011;57291;37.520;15.106;2023-08-12T05:30:08;5.95;;;3.10;;
54555;SDS011;57291;37.520;15.106;2023-08-12T05:32:35;5.50;;;2.70;;
54555;SDS011;57291;37.520;15.106;2023-08-12T05:35:02;8.27;;;2.80;;
54555;SDS011;57291;37.520;15.106;2023-08-12T05:37:30;8.50;;;2.42;;
54555;SDS011;57291;37.520;15.106;2023-08-12T05:39:57;8.52;;;2.95;;
54555;SDS011;57291;37.520;15.106;2023-08-12T05:42:24;4.68;;;2.80;;
54555;SDS011;57291;37.520;15.106;2023-08-12T05:44:51;4.47;;;2.42;;
54555;SDS011;57291;37.520;15.106;2023-08-12T05:47:18;5.43;;;2.80;;
54555;SDS011;57291;37.520;15.106;2023-08-12T05:49:45;6.88;;;2.53;;
54555;SDS011;57291;37.520;15.106;2023-08-12T05:52:12;5.55;;;2.58;;
54555;SDS011;57291;37.520;15.106;2023-08-12T05:54:40;4.65;;;2.90;;
54555;SDS011;57291;37.520;15.106;2023-08-12T05:57:07;5.57;;;2.83;;
54555;SDS011;57291;37.520;15.106;2023-08-12T05:59:34;6.28;;;2.58;;
54555;SDS011;57291;37.520;15.106;2023-08-12T06:02:01;4.40;;;2.20;;
54555;SDS011;57291;37.520;15.106;2023-08-12T06:04:29;6.20;;;2.42;;
54555;SDS011;57291;37.520;15.106;2023-08-12T06:06:56;10.02;;;2.58;;
54555;SDS011;57291;37.520;15.106;2023-08-12T06:09:23;6.20;;;2.72;;
54555;SDS011;57291;37.520;15.106;2023-08-12T06:11:50;6.25;;;2.50;;
54555;SDS011;57291;37.520;15.106;2023-08-12T06:14:17;5.47;;;2.35;;
54555;SDS011;57291;37.520;15.106;2023-08-12T06:16:44;10.43;;;2.63;;
54555;SDS011;57291;37.520;15.106;2023-08-12T06:19:12;5.93;;;2.30;;
54555;SDS011;57291;37.520;15.106;2023-08-12T06:21:39;5.50;;;2.08;;
54555;SDS011;57291;37.520;15.106;2023-08-12T06:24:06;5.82;;;2.13;;
54555;SDS011;57291;37.520;15.106;2023-08-12T06:26:33;6.05;;;2.40;;
54555;SDS011;57291;37.520;15.106;2023-08-12T06:29:00;7.70;;;2.05;;
54555;SDS011;57291;37.520;15.106;2023-08-12T06:31:31;3.80;;;2.13;;
54555;SDS011;57291;37.520;15.106;2023-08-12T06:33:59;4.95;;;2.03;;
54555;SDS011;57291;37.520;15.106;2023-08-12T06:36:26;7.30;;;1.98;;
54555;SDS011;57291;37.520;15.106;2023-08-12T06:38:53;5.90;;;2.22;;
54555;SDS011;57291;37.520;15.106;2023-08-12T06:41:20;3.22;;;1.60;;
54555;SDS011;57291;37.520;15.106;2023-08-12T06:43:47;3.90;;;1.52;;
54555;SDS011;57291;37.520;15.106;2023-08-12T06:46:14;7.72;;;2.13;;
54555;SDS011;57291;37.520;15.106;2023-08-12T06:48:41;7.72;;;2.00;;
54555;SDS011;57291;37.520;15.106;2023-08-12T06:51:08;6.45;;;2.00;;
54555;SDS011;57291;37.520;15.106;2023-08-12T06:53:39;3.25;;;1.70;;
54555;SDS011;57291;37.520;15.106;2023-08-12T06:56:06;4.57;;;1.88;;
54555;SDS011;57291;37.520;15.106;2023-08-12T06:58:33;6.63;;;1.77;;
54555;SDS011;57291;37.520;15.106;2023-08-12T07:01:00;4.70;;;2.08;;
54555;SDS011;57291;37.520;15.106;2023-08-12T07:03:28;6.18;;;1.95;;
54555;SDS011;57291;37.520;15.106;2023-08-12T07:05:55;5.72;;;1.98;;
54555;SDS011;57291;37.520;15.106;2023-08-12T07:08:22;3.70;;;1.83;;
54555;SDS011;57291;37.520;15.106;2023-08-12T07:10:49;5.18;;;1.95;;
54555;SDS011;57291;37.520;15.106;2023-08-12T07:13:16;7.60;;;2.13;;
54555;SDS011;57291;37.520;15.106;2023-08-12T07:15:44;4.15;;;1.90;;
54555;SDS011;57291;37.520;15.106;2023-08-12T07:18:11;3.70;;;1.80;;
54555;SDS011;57291;37.520;15.106;2023-08-12T07:20:38;3.58;;;1.88;;
54555;SDS011;57291;37.520;15.106;2023-08-12T07:23:05;5.45;;;2.22;;
54555;SDS011;57291;37.520;15.106;2023-08-12T07:25:32;5.60;;;2.30;;
54555;SDS011;57291;37.520;15.106;2023-08-12T07:27:59;5.80;;;2.00;;
54555;SDS011;57291;37.520;15.106;2023-08-12T07:30:27;6.10;;;2.25;;
54555;SDS011;57291;37.520;15.106;2023-08-12T07:32:54;6.75;;;2.20;;
54555;SDS011;57291;37.520;15.106;2023-08-12T07:35:21;5.28;;;2.10;;
54555;SDS011;57291;37.520;15.106;2023-08-12T07:37:48;4.78;;;2.17;;
54555;SDS011;57291;37.520;15.106;2023-08-12T07:40:15;6.38;;;2.17;;
54555;SDS011;57291;37.520;15.106;2023-08-12T07:42:42;5.25;;;2.30;;
54555;SDS011;57291;37.520;15.106;2023-08-12T07:45:09;6.68;;;2.40;;
54555;SDS011;57291;37.520;15.106;2023-08-12T07:47:36;8.23;;;2.72;;
54555;SDS011;57291;37.520;15.106;2023-08-12T07:50:06;5.00;;;2.67;;
54555;SDS011;57291;37.520;15.106;2023-08-12T07:52:33;5.25;;;2.42;;
54555;SDS011;57291;37.520;15.106;2023-08-12T07:55:01;4.45;;;2.33;;
54555;SDS011;57291;37.520;15.106;2023-08-12T07:57:28;5.93;;;2.42;;
54555;SDS011;57291;37.520;15.106;2023-08-12T07:59:55;5.32;;;2.75;;
54555;SDS011;57291;37.520;15.106;2023-08-12T08:02:22;5.10;;;2.45;;
54555;SDS011;57291;37.520;15.106;2023-08-12T08:04:49;5.72;;;2.42;;
54555;SDS011;57291;37.520;15.106;2023-08-12T08:07:16;6.80;;;2.33;;
54555;SDS011;57291;37.520;15.106;2023-08-12T08:09:44;8.40;;;2.83;;
54555;SDS011;57291;37.520;15.106;2023-08-12T08:12:11;4.72;;;2.80;;
54555;SDS011;57291;37.520;15.106;2023-08-12T08:14:39;6.38;;;3.15;;
54555;SDS011;57291;37.520;15.106;2023-08-12T08:17:06;6.20;;;2.58;;
54555;SDS011;57291;37.520;15.106;2023-08-12T08:19:34;3.60;;;2.33;;
54555;SDS011;57291;37.520;15.106;2023-08-12T08:22:01;5.25;;;2.67;;
54555;SDS011;57291;37.520;15.106;2023-08-12T08:24:29;5.20;;;2.75;;
54555;SDS011;57291;37.520;15.106;2023-08-12T08:26:56;4.88;;;2.90;;
54555;SDS011;57291;37.520;15.106;2023-08-12T08:29:23;6.25;;;2.58;;
54555;SDS011;57291;37.520;15.106;2023-08-12T08:31:51;8.27;;;3.35;;
54555;SDS011;57291;37.520;15.106;2023-08-12T08:34:18;5.82;;;2.70;;
54555;SDS011;57291;37.520;15.106;2023-08-12T08:36:45;6.03;;;3.35;;
54555;SDS011;57291;37.520;15.106;2023-08-12T08:39:12;3.70;;;2.70;;
54555;SDS011;57291;37.520;15.106;2023-08-12T08:41:39;4.85;;;2.90;;
54555;SDS011;57291;37.520;15.106;2023-08-12T08:44:08;5.50;;;3.22;;
54555;SDS011;57291;37.520;15.106;2023-08-12T08:46:35;5.07;;;2.95;;
54555;SDS011;57291;37.520;15.106;2023-08-12T08:49:03;5.47;;;2.75;;
54555;SDS011;57291;37.520;15.106;2023-08-12T08:51:31;6.53;;;3.03;;
54555;SDS011;57291;37.520;15.106;2023-08-12T08:53:59;5.82;;;3.05;;
54555;SDS011;57291;37.520;15.106;2023-08-12T08:56:30;7.13;;;3.33;;
54555;SDS011;57291;37.520;15.106;2023-08-12T09:01:29;6.15;;;3.00;;
54555;SDS011;57291;37.520;15.106;2023-08-12T09:03:58;3.80;;;2.83;;
54555;SDS011;57291;37.520;15.106;2023-08-12T09:06:26;5.13;;;3.85;;
54555;SDS011;57291;37.520;15.106;2023-08-12T09:08:56;5.18;;;3.65;;
54555;SDS011;57291;37.520;15.106;2023-08-12T09:11:23;7.85;;;4.63;;
54555;SDS011;57291;37.520;15.106;2023-08-12T09:13:51;8.43;;;4.65;;
54555;SDS011;57291;37.520;15.106;2023-08-12T09:16:19;8.93;;;4.75;;
54555;SDS011;57291;37.520;15.106;2023-08-12T09:18:46;10.30;;;4.53;;
54555;SDS011;57291;37.520;15.106;2023-08-12T09:21:15;6.85;;;4.57;;
54555;SDS011;57291;37.520;15.106;2023-08-12T09:23:42;7.50;;;4.50;;
54555;SDS011;57291;37.520;15.106;2023-08-12T09:26:15;10.52;;;4.47;;
54555;SDS011;57291;37.520;15.106;2023-08-12T09:28:43;6.75;;;4.38;;
54555;SDS011;57291;37.520;15.106;2023-08-12T09:31:24;8.82;;;5.20;;
54555;SDS011;57291;37.520;15.106;2023-08-12T09:33:54;7.55;;;4.20;;
54555;SDS011;57291;37.520;15.106;2023-08-12T09:36:27;9.73;;;4.43;;
54555;SDS011;57291;37.520;15.106;2023-08-12T09:38:56;7.07;;;4.05;;
54555;SDS011;57291;37.520;15.106;2023-08-12T09:41:28;9.07;;;4.65;;
54555;SDS011;57291;37.520;15.106;2023-08-12T09:43:56;7.63;;;4.53;;
54555;SDS011;57291;37.520;15.106;2023-08-12T09:46:25;7.90;;;4.60;;
54555;SDS011;57291;37.520;15.106;2023-08-12T09:48:53;7.80;;;4.80;;
54555;SDS011;57291;37.520;15.106;2023-08-12T09:51:20;7.57;;;4.75;;
54555;SDS011;57291;37.520;15.106;2023-08-12T09:53:51;7.00;;;4.40;;
54555;SDS011;57291;37.520;15.106;2023-08-12T09:56:19;7.63;;;4.78;;
54555;SDS011;57291;37.520;15.106;2023-08-12T09:58:50;8.40;;;4.35;;
54555;SDS011;57291;37.520;15.106;2023-08-12T10:01:20;10.18;;;5.07;;
54555;SDS011;57291;37.520;15.106;2023-08-12T10:03:49;9.20;;;5.03;;
54555;SDS011;57291;37.520;15.106;2023-08-12T10:06:20;7.25;;;4.80;;
54555;SDS011;57291;37.520;15.106;2023-08-12T10:08:48;10.88;;;5.07;;
54555;SDS011;57291;37.520;15.106;2023-08-12T10:11:16;7.85;;;4.80;;
54555;SDS011;57291;37.520;15.106;2023-08-12T10:13:43;6.10;;;4.15;;
54555;SDS011;57291;37.520;15.106;2023-08-12T10:16:10;9.32;;;5.22;;
54555;SDS011;57291;37.520;15.106;2023-08-12T10:18:39;5.28;;;4.03;;
54555;SDS011;57291;37.520;15.106;2023-08-12T10:21:08;6.57;;;4.43;;
54555;SDS011;57291;37.520;15.106;2023-08-12T10:23:37;6.68;;;4.57;;
54555;SDS011;57291;37.520;15.106;2023-08-12T10:26:05;9.45;;;5.00;;
54555;SDS011;57291;37.520;15.106;2023-08-12T10:28:33;8.23;;;5.50;;
54555;SDS011;57291;37.520;15.106;2023-08-12T10:31:04;8.65;;;5.03;;
54555;SDS011;57291;37.520;15.106;2023-08-12T10:33:36;9.85;;;5.28;;
54555;SDS011;57291;37.520;15.106;2023-08-12T10:36:04;7.10;;;5.10;;
54555;SDS011;57291;37.520;15.106;2023-08-12T10:38:32;7.03;;;4.78;;
54555;SDS011;57291;37.520;15.106;2023-08-12T10:41:22;8.70;;;4.63;;
54555;SDS011;57291;37.520;15.106;2023-08-12T10:44:01;7.32;;;4.78;;
54555;SDS011;57291;37.520;15.106;2023-08-12T10:46:35;7.00;;;4.55;;
54555;SDS011;57291;37.520;15.106;2023-08-12T10:51:41;6.57;;;4.72;;
54555;SDS011;57291;37.520;15.106;2023-08-12T10:54:15;6.28;;;4.60;;
54555;SDS011;57291;37.520;15.106;2023-08-12T11:02:18;6.22;;;4.68;;
54555;SDS011;57291;37.520;15.106;2023-08-12T11:05:17;7.18;;;4.65;;
54555;SDS011;57291;37.520;15.106;2023-08-12T11:07:58;6.45;;;4.90;;
54555;SDS011;57291;37.520;15.106;2023-08-12T11:10:33;8.35;;;4.57;;
54555;SDS011;57291;37.520;15.106;2023-08-12T11:13:02;10.95;;;5.25;;
54555;SDS011;57291;37.520;15.106;2023-08-12T11:15:31;7.30;;;4.90;;
54555;SDS011;57291;37.520;15.106;2023-08-12T11:18:01;6.28;;;4.93;;
54555;SDS011;57291;37.520;15.106;2023-08-12T11:20:32;6.53;;;4.57;;
54555;SDS011;57291;37.520;15.106;2023-08-12T11:23:00;6.68;;;4.55;;
54555;SDS011;57291;37.520;15.106;2023-08-12T11:25:29;8.75;;;4.93;;
54555;SDS011;57291;37.520;15.106;2023-08-12T11:27:57;6.13;;;4.30;;
54555;SDS011;57291;37.520;15.106;2023-08-12T11:30:25;9.02;;;4.65;;
54555;SDS011;57291;37.520;15.106;2023-08-12T11:32:59;6.07;;;4.30;;
54555;SDS011;57291;37.520;15.106;2023-08-12T11:35:28;6.88;;;4.70;;
54555;SDS011;57291;37.520;15.106;2023-08-12T11:37:56;6.93;;;4.35;;
54555;SDS011;57291;37.520;15.106;2023-08-12T11:40:26;8.13;;;4.57;;
54555;SDS011;57291;37.520;15.106;2023-08-12T11:42:54;6.72;;;4.07;;
54555;SDS011;57291;37.520;15.106;2023-08-12T11:45:22;7.10;;;4.07;;
54555;SDS011;57291;37.520;15.106;2023-08-12T11:47:51;7.03;;;4.07;;
54555;SDS011;57291;37.520;15.106;2023-08-12T11:50:23;5.85;;;4.53;;
54555;SDS011;57291;37.520;15.106;2023-08-12T11:52:52;9.82;;;4.10;;
54555;SDS011;57291;37.520;15.106;2023-08-12T11:55:20;7.30;;;4.00;;
54555;SDS011;57291;37.520;15.106;2023-08-12T11:57:48;5.55;;;4.15;;
54555;SDS011;57291;37.520;15.106;2023-08-12T12:00:17;6.13;;;4.45;;
54555;SDS011;57291;37.520;15.106;2023-08-12T12:02:53;10.43;;;4.85;;
54555;SDS011;57291;37.520;15.106;2023-08-12T12:05:23;8.02;;;4.40;;
54555;SDS011;57291;37.520;15.106;2023-08-12T12:07:53;6.22;;;4.18;;
54555;SDS011;57291;37.520;15.106;2023-08-12T12:10:21;6.75;;;4.63;;
54555;SDS011;57291;37.520;15.106;2023-08-12T12:12:55;7.82;;;4.32;;
54555;SDS011;57291;37.520;15.106;2023-08-12T12:15:23;6.38;;;4.05;;
54555;SDS011;57291;37.520;15.106;2023-08-12T12:17:50;7.30;;;4.30;;
54555;SDS011;57291;37.520;15.106;2023-08-12T12:20:18;6.53;;;4.32;;
54555;SDS011;57291;37.520;15.106;2023-08-12T12:22:47;5.25;;;4.07;;
54555;SDS011;57291;37.520;15.106;2023-08-12T12:25:15;5.60;;;4.00;;
54555;SDS011;57291;37.520;15.106;2023-08-12T12:27:45;7.15;;;4.35;;
54555;SDS011;57291;37.520;15.106;2023-08-12T12:30:14;6.75;;;4.03;;
54555;SDS011;57291;37.520;15.106;2023-08-12T12:32:42;6.18;;;4.30;;
54555;SDS011;57291;37.520;15.106;2023-08-12T12:35:10;7.55;;;3.78;;
54555;SDS011;57291;37.520;15.106;2023-08-12T12:37:37;5.82;;;4.03;;
54555;SDS011;57291;37.520;15.106;2023-08-12T12:40:05;6.50;;;4.50;;
54555;SDS011;57291;37.520;15.106;2023-08-12T12:42:34;7.43;;;4.05;;
54555;SDS011;57291;37.520;15.106;2023-08-12T12:45:01;7.30;;;3.80;;
54555;SDS011;57291;37.520;15.106;2023-08-12T12:47:28;6.57;;;4.30;;
54555;SDS011;57291;37.520;15.106;2023-08-12T12:49:55;4.63;;;3.45;;
54555;SDS011;57291;37.520;15.106;2023-08-12T12:52:23;6.53;;;3.88;;
54555;SDS011;57291;37.520;15.106;2023-08-12T12:54:50;7.10;;;3.92;;
54555;SDS011;57291;37.520;15.106;2023-08-12T12:57:17;5.72;;;3.58;;
54555;SDS011;57291;37.520;15.106;2023-08-12T12:59:44;5.72;;;3.67;;
54555;SDS011;57291;37.520;15.106;2023-08-12T13:02:11;7.50;;;3.67;;
54555;SDS011;57291;37.520;15.106;2023-08-12T13:04:39;5.93;;;3.50;;
54555;SDS011;57291;37.520;15.106;2023-08-12T13:07:06;5.13;;;3.60;;
54555;SDS011;57291;37.520;15.106;2023-08-12T13:09:33;7.28;;;4.07;;
54555;SDS011;57291;37.520;15.106;2023-08-12T13:12:00;9.63;;;4.10;;
54555;SDS011;57291;37.520;15.106;2023-08-12T13:14:27;10.20;;;3.90;;
54555;SDS011;57291;37.520;15.106;2023-08-12T13:16:57;6.93;;;3.63;;
54555;SDS011;57291;37.520;15.106;2023-08-12T13:19:24;8.73;;;4.35;;
54555;SDS011;57291;37.520;15.106;2023-08-12T13:21:51;8.75;;;3.22;;
54555;SDS011;57291;37.520;15.106;2023-08-12T13:24:18;7.10;;;3.60;;
54555;SDS011;57291;37.520;15.106;2023-08-12T13:26:47;5.50;;;3.25;;
54555;SDS011;57291;37.520;15.106;2023-08-12T13:29:14;5.25;;;3.60;;
54555;SDS011;57291;37.520;15.106;2023-08-12T13:31:41;6.70;;;3.97;;
54555;SDS011;57291;37.520;15.106;2023-08-12T13:34:08;5.57;;;3.45;;
54555;SDS011;57291;37.520;15.106;2023-08-12T13:36:35;5.40;;;3.72;;
54555;SDS011;57291;37.520;15.106;2023-08-12T13:39:03;5.68;;;3.75;;
54555;SDS011;57291;37.520;15.106;2023-08-12T13:41:30;7.10;;;3.83;;
54555;SDS011;57291;37.520;15.106;2023-08-12T13:43:57;5.57;;;3.63;;
54555;SDS011;57291;37.520;15.106;2023-08-12T13:46:24;5.20;;;3.58;;
54555;SDS011;57291;37.520;15.106;2023-08-12T13:48:52;5.57;;;3.60;;
54555;SDS011;57291;37.520;15.106;2023-08-12T13:51:19;5.78;;;3.60;;
54555;SDS011;57291;37.520;15.106;2023-08-12T13:53:46;4.47;;;3.35;;
54555;SDS011;57291;37.520;15.106;2023-08-12T13:56:14;4.82;;;3.50;;
54555;SDS011;57291;37.520;15.106;2023-08-12T13:58:42;8.27;;;3.80;;
54555;SDS011;57291;37.520;15.106;2023-08-12T14:01:09;5.55;;;3.55;;
54555;SDS011;57291;37.520;15.106;2023-08-12T14:03:37;6.97;;;3.83;;
54555;SDS011;57291;37.520;15.106;2023-08-12T14:06:04;6.38;;;4.10;;
54555;SDS011;57291;37.520;15.106;2023-08-12T14:08:31;7.00;;;4.28;;
54555;SDS011;57291;37.520;15.106;2023-08-12T14:10:58;5.93;;;4.78;;
54555;SDS011;57291;37.520;15.106;2023-08-12T14:13:26;7.15;;;4.53;;
54555;SDS011;57291;37.520;15.106;2023-08-12T14:15:53;6.65;;;4.18;;
54555;SDS011;57291;37.520;15.106;2023-08-12T14:18:20;6.25;;;4.45;;
54555;SDS011;57291;37.520;15.106;2023-08-12T14:20:48;5.13;;;4.10;;
54555;SDS011;57291;37.520;15.106;2023-08-12T14:23:15;6.95;;;4.82;;
54555;SDS011;57291;37.520;15.106;2023-08-12T14:25:42;6.32;;;4.72;;
54555;SDS011;57291;37.520;15.106;2023-08-12T14:28:09;8.13;;;4.97;;
54555;SDS011;57291;37.520;15.106;2023-08-12T14:30:36;6.63;;;5.18;;
54555;SDS011;57291;37.520;15.106;2023-08-12T14:33:04;9.23;;;5.30;;
54555;SDS011;57291;37.520;15.106;2023-08-12T14:35:33;5.70;;;4.13;;
54555;SDS011;57291;37.520;15.106;2023-08-12T14:38:01;7.32;;;4.63;;
54555;SDS011;57291;37.520;15.106;2023-08-12T14:40:30;4.97;;;4.15;;
54555;SDS011;57291;37.520;15.106;2023-08-12T14:42:57;6.80;;;4.63;;
54555;SDS011;57291;37.520;15.106;2023-08-12T14:45:24;6.15;;;4.32;;
54555;SDS011;57291;37.520;15.106;2023-08-12T14:47:51;4.82;;;3.97;;
54555;SDS011;57291;37.520;15.106;2023-08-12T14:50:18;6.70;;;4.47;;
54555;SDS011;57291;37.520;15.106;2023-08-12T14:52:46;7.68;;;4.75;;
54555;SDS011;57291;37.520;15.106;2023-08-12T14:55:13;5.85;;;4.80;;